sensor_id;sensor_type;location;lat;lon;timestamp;temperature;humidity
62573;DHT22;48626;51.678;5.806;2022-07-03T00:02:08;18.70;76.60
62573;DHT22;48626;51.678;5.806;2022-07-03T00:04:33;18.70;76.40
62573;DHT22;48626;51.678;5.806;2022-07-03T00:06:59;18.60;76.40
62573;DHT22;48626;51.678;5.806;2022-07-03T00:09:25;18.50;76.20
62573;DHT22;48626;51.678;5.806;2022-07-03T00:11:51;18.40;76.20
62573;DHT22;48626;51.678;5.806;2022-07-03T00:14:17;18.30;76.30
62573;DHT22;48626;51.678;5.806;2022-07-03T00:16:42;18.30;76.60
62573;DHT22;48626;51.678;5.806;2022-07-03T00:19:08;18.20;76.80
62573;DHT22;48626;51.678;5.806;2022-07-03T00:21:38;18.10;77.10
62573;DHT22;48626;51.678;5.806;2022-07-03T00:24:19;18.10;77.70
62573;DHT22;48626;51.678;5.806;2022-07-03T00:26:49;18.00;77.80
62573;DHT22;48626;51.678;5.806;2022-07-03T00:29:17;18.00;77.80
62573;DHT22;48626;51.678;5.806;2022-07-03T00:31:44;17.90;77.90
62573;DHT22;48626;51.678;5.806;2022-07-03T00:34:11;17.80;78.10
62573;DHT22;48626;51.678;5.806;2022-07-03T00:36:39;17.80;78.40
62573;DHT22;48626;51.678;5.806;2022-07-03T00:39:05;17.70;78.60
62573;DHT22;48626;51.678;5.806;2022-07-03T00:41:34;17.70;78.80
62573;DHT22;48626;51.678;5.806;2022-07-03T00:44:00;17.60;79.00
62573;DHT22;48626;51.678;5.806;2022-07-03T00:46:27;17.60;79.20
62573;DHT22;48626;51.678;5.806;2022-07-03T00:48:56;17.50;79.40
62573;DHT22;48626;51.678;5.806;2022-07-03T00:51:27;17.50;79.60
62573;DHT22;48626;51.678;5.806;2022-07-03T00:53:56;17.40;79.70
62573;DHT22;48626;51.678;5.806;2022-07-03T00:56:29;17.40;80.10
62573;DHT22;48626;51.678;5.806;2022-07-03T00:58:59;17.40;80.20
62573;DHT22;48626;51.678;5.806;2022-07-03T01:01:28;17.30;80.30
62573;DHT22;48626;51.678;5.806;2022-07-03T01:07:06;17.30;80.80
62573;DHT22;48626;51.678;5.806;2022-07-03T01:09:54;17.20;80.70
62573;DHT22;48626;51.678;5.806;2022-07-03T01:15:11;17.10;80.90
62573;DHT22;48626;51.678;5.806;2022-07-03T01:20:31;17.00;81.60
62573;DHT22;48626;51.678;5.806;2022-07-03T01:23:00;17.00;81.80
62573;DHT22;48626;51.678;5.806;2022-07-03T01:28:12;16.90;81.90
62573;DHT22;48626;51.678;5.806;2022-07-03T01:30:43;16.90;81.90
62573;DHT22;48626;51.678;5.806;2022-07-03T01:33:17;16.90;81.90
62573;DHT22;48626;51.678;5.806;2022-07-03T01:38:23;16.70;81.00
62573;DHT22;48626;51.678;5.806;2022-07-03T01:40:52;16.70;81.20
62573;DHT22;48626;51.678;5.806;2022-07-03T01:43:27;16.60;80.90
62573;DHT22;48626;51.678;5.806;2022-07-03T01:45:53;16.60;81.20
62573;DHT22;48626;51.678;5.806;2022-07-03T01:48:23;16.60;81.10
62573;DHT22;48626;51.678;5.806;2022-07-03T01:50:49;16.50;81.00
62573;DHT22;48626;51.678;5.806;2022-07-03T01:53:18;16.50;81.10
62573;DHT22;48626;51.678;5.806;2022-07-03T01:55:44;16.50;81.30
62573;DHT22;48626;51.678;5.806;2022-07-03T01:58:11;16.50;81.40
62573;DHT22;48626;51.678;5.806;2022-07-03T02:01:02;16.50;81.60
62573;DHT22;48626;51.678;5.806;2022-07-03T02:03:29;16.50;81.90
62573;DHT22;48626;51.678;5.806;2022-07-03T02:06:20;16.50;81.90
62573;DHT22;48626;51.678;5.806;2022-07-03T02:11:28;16.50;81.80
62573;DHT22;48626;51.678;5.806;2022-07-03T02:14:16;16.50;82.20
62573;DHT22;48626;51.678;5.806;2022-07-03T02:17:17;16.40;82.20
62573;DHT22;48626;51.678;5.806;2022-07-03T02:24:52;16.40;82.60
62573;DHT22;48626;51.678;5.806;2022-07-03T02:27:25;16.40;82.70
62573;DHT22;48626;51.678;5.806;2022-07-03T02:30:05;16.40;82.90
62573;DHT22;48626;51.678;5.806;2022-07-03T02:32:38;16.40;83.00
62573;DHT22;48626;51.678;5.806;2022-07-03T02:35:31;16.30;83.10
62573;DHT22;48626;51.678;5.806;2022-07-03T02:40:37;16.40;83.40
62573;DHT22;48626;51.678;5.806;2022-07-03T02:43:15;16.30;83.50
62573;DHT22;48626;51.678;5.806;2022-07-03T02:45:55;16.30;83.50
62573;DHT22;48626;51.678;5.806;2022-07-03T02:48:34;16.30;83.80
62573;DHT22;48626;51.678;5.806;2022-07-03T02:51:09;16.20;83.90
62573;DHT22;48626;51.678;5.806;2022-07-03T02:53:41;16.20;83.90
62573;DHT22;48626;51.678;5.806;2022-07-03T02:56:26;16.10;83.90
62573;DHT22;48626;51.678;5.806;2022-07-03T02:59:09;16.10;84.10
62573;DHT22;48626;51.678;5.806;2022-07-03T03:01:48;16.10;84.30
62573;DHT22;48626;51.678;5.806;2022-07-03T03:04:28;16.10;84.30
62573;DHT22;48626;51.678;5.806;2022-07-03T03:09:40;16.00;84.30
62573;DHT22;48626;51.678;5.806;2022-07-03T03:12:08;16.00;84.50
62573;DHT22;48626;51.678;5.806;2022-07-03T03:14:44;16.00;84.70
62573;DHT22;48626;51.678;5.806;2022-07-03T03:17:19;16.00;84.90
62573;DHT22;48626;51.678;5.806;2022-07-03T03:19:52;15.90;84.90
62573;DHT22;48626;51.678;5.806;2022-07-03T03:25:03;15.90;85.10
62573;DHT22;48626;51.678;5.806;2022-07-03T03:27:29;15.80;85.20
62573;DHT22;48626;51.678;5.806;2022-07-03T03:29:55;15.80;85.20
62573;DHT22;48626;51.678;5.806;2022-07-03T03:32:22;15.80;85.40
62573;DHT22;48626;51.678;5.806;2022-07-03T03:34:49;15.80;85.60
62573;DHT22;48626;51.678;5.806;2022-07-03T03:37:15;15.80;85.60
62573;DHT22;48626;51.678;5.806;2022-07-03T03:39:41;15.80;86.00
62573;DHT22;48626;51.678;5.806;2022-07-03T03:42:08;15.80;86.10
62573;DHT22;48626;51.678;5.806;2022-07-03T03:44:34;15.70;86.10
62573;DHT22;48626;51.678;5.806;2022-07-03T03:46:59;15.70;86.30
62573;DHT22;48626;51.678;5.806;2022-07-03T03:49:25;15.70;86.40
62573;DHT22;48626;51.678;5.806;2022-07-03T03:51:51;15.70;86.60
62573;DHT22;48626;51.678;5.806;2022-07-03T03:54:18;15.80;86.90
62573;DHT22;48626;51.678;5.806;2022-07-03T03:56:43;15.80;86.90
62573;DHT22;48626;51.678;5.806;2022-07-03T03:59:09;15.80;86.90
62573;DHT22;48626;51.678;5.806;2022-07-03T04:01:35;15.90;86.80
62573;DHT22;48626;51.678;5.806;2022-07-03T04:04:01;15.90;87.00
62573;DHT22;48626;51.678;5.806;2022-07-03T04:06:26;15.90;87.00
62573;DHT22;48626;51.678;5.806;2022-07-03T04:08:52;16.00;87.10
62573;DHT22;48626;51.678;5.806;2022-07-03T04:11:18;16.00;87.10
62573;DHT22;48626;51.678;5.806;2022-07-03T04:13:44;16.00;86.90
62573;DHT22;48626;51.678;5.806;2022-07-03T04:16:11;16.00;86.60
62573;DHT22;48626;51.678;5.806;2022-07-03T04:18:37;16.10;86.70
62573;DHT22;48626;51.678;5.806;2022-07-03T04:21:03;16.10;86.70
62573;DHT22;48626;51.678;5.806;2022-07-03T04:23:29;16.10;86.40
62573;DHT22;48626;51.678;5.806;2022-07-03T04:25:55;16.10;86.30
62573;DHT22;48626;51.678;5.806;2022-07-03T04:28:21;16.10;86.20
62573;DHT22;48626;51.678;5.806;2022-07-03T04:30:47;16.10;86.20
62573;DHT22;48626;51.678;5.806;2022-07-03T04:33:13;16.10;86.30
62573;DHT22;48626;51.678;5.806;2022-07-03T04:35:38;16.10;86.30
62573;DHT22;48626;51.678;5.806;2022-07-03T04:38:04;16.10;86.40
62573;DHT22;48626;51.678;5.806;2022-07-03T04:40:30;16.10;86.30
62573;DHT22;48626;51.678;5.806;2022-07-03T04:42:55;16.10;86.20
62573;DHT22;48626;51.678;5.806;2022-07-03T04:45:21;16.10;86.20
62573;DHT22;48626;51.678;5.806;2022-07-03T04:47:47;16.10;86.50
62573;DHT22;48626;51.678;5.806;2022-07-03T04:50:12;16.10;86.50
62573;DHT22;48626;51.678;5.806;2022-07-03T04:52:38;16.10;86.60
62573;DHT22;48626;51.678;5.806;2022-07-03T04:55:04;16.20;86.80
62573;DHT22;48626;51.678;5.806;2022-07-03T04:57:30;16.20;86.70
62573;DHT22;48626;51.678;5.806;2022-07-03T04:59:56;16.20;86.80
62573;DHT22;48626;51.678;5.806;2022-07-03T05:02:21;16.30;87.00
62573;DHT22;48626;51.678;5.806;2022-07-03T05:04:47;16.30;87.10
62573;DHT22;48626;51.678;5.806;2022-07-03T05:07:13;16.40;87.20
62573;DHT22;48626;51.678;5.806;2022-07-03T05:09:38;16.40;87.30
62573;DHT22;48626;51.678;5.806;2022-07-03T05:12:04;16.50;87.20
62573;DHT22;48626;51.678;5.806;2022-07-03T05:14:30;16.70;87.10
62573;DHT22;48626;51.678;5.806;2022-07-03T05:16:56;16.80;87.40
62573;DHT22;48626;51.678;5.806;2022-07-03T05:19:21;17.00;87.40
62573;DHT22;48626;51.678;5.806;2022-07-03T05:21:47;17.20;87.30
62573;DHT22;48626;51.678;5.806;2022-07-03T05:24:12;17.50;86.50
62573;DHT22;48626;51.678;5.806;2022-07-03T05:26:38;17.70;84.50
62573;DHT22;48626;51.678;5.806;2022-07-03T05:29:03;17.90;83.40
62573;DHT22;48626;51.678;5.806;2022-07-03T05:31:29;18.00;83.60
62573;DHT22;48626;51.678;5.806;2022-07-03T05:33:55;18.10;82.00
62573;DHT22;48626;51.678;5.806;2022-07-03T05:36:20;18.20;81.50
62573;DHT22;48626;51.678;5.806;2022-07-03T05:38:46;18.30;81.20
62573;DHT22;48626;51.678;5.806;2022-07-03T05:41:31;18.40;81.30
62573;DHT22;48626;51.678;5.806;2022-07-03T05:43:56;18.50;80.80
62573;DHT22;48626;51.678;5.806;2022-07-03T05:46:23;18.60;80.20
62573;DHT22;48626;51.678;5.806;2022-07-03T05:48:48;18.80;79.90
62573;DHT22;48626;51.678;5.806;2022-07-03T05:51:14;18.90;79.80
62573;DHT22;48626;51.678;5.806;2022-07-03T05:53:39;19.10;79.00
62573;DHT22;48626;51.678;5.806;2022-07-03T05:56:05;19.20;78.50
62573;DHT22;48626;51.678;5.806;2022-07-03T05:58:31;19.30;78.10
62573;DHT22;48626;51.678;5.806;2022-07-03T06:00:56;19.30;77.90
62573;DHT22;48626;51.678;5.806;2022-07-03T06:03:22;19.20;77.00
62573;DHT22;48626;51.678;5.806;2022-07-03T06:05:48;19.20;76.70
62573;DHT22;48626;51.678;5.806;2022-07-03T06:08:13;19.30;76.70
62573;DHT22;48626;51.678;5.806;2022-07-03T06:10:39;19.40;76.80
62573;DHT22;48626;51.678;5.806;2022-07-03T06:13:05;19.40;76.70
62573;DHT22;48626;51.678;5.806;2022-07-03T06:15:31;19.50;76.80
62573;DHT22;48626;51.678;5.806;2022-07-03T06:17:57;19.50;77.30
62573;DHT22;48626;51.678;5.806;2022-07-03T06:20:23;19.60;75.70
62573;DHT22;48626;51.678;5.806;2022-07-03T06:22:49;19.50;75.60
62573;DHT22;48626;51.678;5.806;2022-07-03T06:25:14;19.60;75.40
62573;DHT22;48626;51.678;5.806;2022-07-03T06:27:40;19.70;75.00
62573;DHT22;48626;51.678;5.806;2022-07-03T06:30:08;19.70;75.30
62573;DHT22;48626;51.678;5.806;2022-07-03T06:32:34;19.80;75.00
62573;DHT22;48626;51.678;5.806;2022-07-03T06:34:59;19.90;75.00
62573;DHT22;48626;51.678;5.806;2022-07-03T06:37:25;20.00;74.80
62573;DHT22;48626;51.678;5.806;2022-07-03T06:39:51;20.10;73.80
62573;DHT22;48626;51.678;5.806;2022-07-03T06:42:16;20.10;73.80
62573;DHT22;48626;51.678;5.806;2022-07-03T06:44:42;20.10;74.10
62573;DHT22;48626;51.678;5.806;2022-07-03T06:47:10;20.00;74.30
62573;DHT22;48626;51.678;5.806;2022-07-03T06:49:36;20.00;74.70
62573;DHT22;48626;51.678;5.806;2022-07-03T06:52:01;20.00;74.90
62573;DHT22;48626;51.678;5.806;2022-07-03T06:54:27;20.10;75.30
62573;DHT22;48626;51.678;5.806;2022-07-03T06:56:53;20.20;75.50
62573;DHT22;48626;51.678;5.806;2022-07-03T06:59:18;20.40;75.20
62573;DHT22;48626;51.678;5.806;2022-07-03T07:01:44;20.50;74.40
62573;DHT22;48626;51.678;5.806;2022-07-03T07:04:10;20.60;73.90
62573;DHT22;48626;51.678;5.806;2022-07-03T07:06:36;20.70;74.70
62573;DHT22;48626;51.678;5.806;2022-07-03T07:09:03;20.80;73.90
62573;DHT22;48626;51.678;5.806;2022-07-03T07:11:29;20.80;73.00
62573;DHT22;48626;51.678;5.806;2022-07-03T07:13:54;20.90;72.80
62573;DHT22;48626;51.678;5.806;2022-07-03T07:16:20;21.10;72.60
62573;DHT22;48626;51.678;5.806;2022-07-03T07:18:46;21.20;72.00
62573;DHT22;48626;51.678;5.806;2022-07-03T07:21:11;21.20;71.50
62573;DHT22;48626;51.678;5.806;2022-07-03T07:23:37;21.30;71.30
62573;DHT22;48626;51.678;5.806;2022-07-03T07:26:03;21.30;70.90
62573;DHT22;48626;51.678;5.806;2022-07-03T07:28:29;21.40;70.30
62573;DHT22;48626;51.678;5.806;2022-07-03T07:30:56;21.50;69.90
62573;DHT22;48626;51.678;5.806;2022-07-03T07:33:23;21.50;70.00
62573;DHT22;48626;51.678;5.806;2022-07-03T07:35:50;21.60;68.20
62573;DHT22;48626;51.678;5.806;2022-07-03T07:38:16;21.70;67.90
62573;DHT22;48626;51.678;5.806;2022-07-03T07:40:41;21.80;68.20
62573;DHT22;48626;51.678;5.806;2022-07-03T07:43:07;21.90;67.30
62573;DHT22;48626;51.678;5.806;2022-07-03T07:45:33;22.00;67.50
62573;DHT22;48626;51.678;5.806;2022-07-03T07:47:59;22.00;68.00
62573;DHT22;48626;51.678;5.806;2022-07-03T07:50:25;22.10;65.10
62573;DHT22;48626;51.678;5.806;2022-07-03T07:52:51;22.20;66.50
62573;DHT22;48626;51.678;5.806;2022-07-03T07:55:16;22.20;64.50
62573;DHT22;48626;51.678;5.806;2022-07-03T07:57:42;22.30;64.20
62573;DHT22;48626;51.678;5.806;2022-07-03T08:00:10;22.40;65.10
62573;DHT22;48626;51.678;5.806;2022-07-03T08:02:37;22.40;63.50
62573;DHT22;48626;51.678;5.806;2022-07-03T08:05:21;22.50;63.70
62573;DHT22;48626;51.678;5.806;2022-07-03T08:08:13;22.60;65.30
62573;DHT22;48626;51.678;5.806;2022-07-03T08:10:49;22.70;63.80
62573;DHT22;48626;51.678;5.806;2022-07-03T08:13:17;22.80;63.30
62573;DHT22;48626;51.678;5.806;2022-07-03T08:15:44;22.80;62.60
62573;DHT22;48626;51.678;5.806;2022-07-03T08:18:10;22.90;62.00
62573;DHT22;48626;51.678;5.806;2022-07-03T08:20:36;23.00;61.60
62573;DHT22;48626;51.678;5.806;2022-07-03T08:23:03;23.00;62.00
62573;DHT22;48626;51.678;5.806;2022-07-03T08:25:29;23.10;63.60
62573;DHT22;48626;51.678;5.806;2022-07-03T08:27:56;23.20;62.90
62573;DHT22;48626;51.678;5.806;2022-07-03T08:30:21;23.30;61.30
62573;DHT22;48626;51.678;5.806;2022-07-03T08:32:49;23.40;61.90
62573;DHT22;48626;51.678;5.806;2022-07-03T08:35:14;23.40;58.90
62573;DHT22;48626;51.678;5.806;2022-07-03T08:37:40;23.50;60.70
62573;DHT22;48626;51.678;5.806;2022-07-03T08:40:08;23.50;61.10
62573;DHT22;48626;51.678;5.806;2022-07-03T08:42:37;23.60;58.40
62573;DHT22;48626;51.678;5.806;2022-07-03T08:45:06;23.70;60.80
62573;DHT22;48626;51.678;5.806;2022-07-03T08:47:32;23.80;60.00
62573;DHT22;48626;51.678;5.806;2022-07-03T08:49:58;23.90;60.40
62573;DHT22;48626;51.678;5.806;2022-07-03T08:52:26;23.90;60.60
62573;DHT22;48626;51.678;5.806;2022-07-03T08:54:52;24.00;59.50
62573;DHT22;48626;51.678;5.806;2022-07-03T08:57:18;24.00;60.00
62573;DHT22;48626;51.678;5.806;2022-07-03T08:59:45;24.20;61.10
62573;DHT22;48626;51.678;5.806;2022-07-03T09:02:12;24.30;60.80
62573;DHT22;48626;51.678;5.806;2022-07-03T09:04:39;24.30;58.80
62573;DHT22;48626;51.678;5.806;2022-07-03T09:07:06;24.30;59.90
62573;DHT22;48626;51.678;5.806;2022-07-03T09:09:32;24.40;58.70
62573;DHT22;48626;51.678;5.806;2022-07-03T09:11:59;24.40;57.10
62573;DHT22;48626;51.678;5.806;2022-07-03T09:14:24;24.40;56.20
62573;DHT22;48626;51.678;5.806;2022-07-03T09:16:50;24.50;56.70
62573;DHT22;48626;51.678;5.806;2022-07-03T09:19:43;24.70;58.10
62573;DHT22;48626;51.678;5.806;2022-07-03T09:22:25;24.90;58.30
62573;DHT22;48626;51.678;5.806;2022-07-03T09:24:53;24.90;56.70
62573;DHT22;48626;51.678;5.806;2022-07-03T09:27:21;24.90;55.60
62573;DHT22;48626;51.678;5.806;2022-07-03T09:29:58;25.00;57.40
62573;DHT22;48626;51.678;5.806;2022-07-03T09:32:47;25.10;56.30
62573;DHT22;48626;51.678;5.806;2022-07-03T09:37:56;25.20;56.30
62573;DHT22;48626;51.678;5.806;2022-07-03T09:40:25;25.40;57.20
62573;DHT22;48626;51.678;5.806;2022-07-03T09:43:06;25.60;55.70
62573;DHT22;48626;51.678;5.806;2022-07-03T09:51:23;26.10;55.30
62573;DHT22;48626;51.678;5.806;2022-07-03T09:54:00;26.30;56.80
62573;DHT22;48626;51.678;5.806;2022-07-03T09:56:37;26.40;56.00
62573;DHT22;48626;51.678;5.806;2022-07-03T10:01:43;26.60;55.50
62573;DHT22;48626;51.678;5.806;2022-07-03T10:06:55;26.70;56.20
62573;DHT22;48626;51.678;5.806;2022-07-03T10:09:31;26.90;53.60
62573;DHT22;48626;51.678;5.806;2022-07-03T10:11:58;26.90;52.60
62573;DHT22;48626;51.678;5.806;2022-07-03T10:14:30;27.10;55.10
62573;DHT22;48626;51.678;5.806;2022-07-03T10:16:56;27.10;50.90
62573;DHT22;48626;51.678;5.806;2022-07-03T10:19:30;27.10;53.90
62573;DHT22;48626;51.678;5.806;2022-07-03T10:22:03;27.30;53.80
62573;DHT22;48626;51.678;5.806;2022-07-03T10:24:33;27.40;55.70
62573;DHT22;48626;51.678;5.806;2022-07-03T10:26:58;27.50;52.40
62573;DHT22;48626;51.678;5.806;2022-07-03T10:29:26;27.50;52.70
62573;DHT22;48626;51.678;5.806;2022-07-03T10:31:52;27.50;54.10
62573;DHT22;48626;51.678;5.806;2022-07-03T10:34:22;27.70;55.70
62573;DHT22;48626;51.678;5.806;2022-07-03T10:37:02;27.80;55.30
62573;DHT22;48626;51.678;5.806;2022-07-03T10:42:04;28.00;53.90
62573;DHT22;48626;51.678;5.806;2022-07-03T10:45:04;28.30;50.60
62573;DHT22;48626;51.678;5.806;2022-07-03T10:50:08;28.70;50.60
62573;DHT22;48626;51.678;5.806;2022-07-03T10:52:35;29.00;49.20
62573;DHT22;48626;51.678;5.806;2022-07-03T10:55:00;29.30;49.60
62573;DHT22;48626;51.678;5.806;2022-07-03T10:57:28;29.60;49.50
62573;DHT22;48626;51.678;5.806;2022-07-03T11:02:26;29.80;41.90
62573;DHT22;48626;51.678;5.806;2022-07-03T11:07:43;30.00;46.40
62573;DHT22;48626;51.678;5.806;2022-07-03T11:13:00;29.80;43.30
62573;DHT22;48626;51.678;5.806;2022-07-03T11:18:20;29.40;48.00
62573;DHT22;48626;51.678;5.806;2022-07-03T11:33:45;28.30;45.60
62573;DHT22;48626;51.678;5.806;2022-07-03T11:38:45;27.70;46.40
62573;DHT22;48626;51.678;5.806;2022-07-03T11:41:13;27.50;48.90
62573;DHT22;48626;51.678;5.806;2022-07-03T11:43:47;27.50;50.30
62573;DHT22;48626;51.678;5.806;2022-07-03T11:46:17;27.40;49.00
62573;DHT22;48626;51.678;5.806;2022-07-03T11:48:43;27.40;50.10
62573;DHT22;48626;51.678;5.806;2022-07-03T11:51:09;27.40;48.70
62573;DHT22;48626;51.678;5.806;2022-07-03T11:53:36;27.60;52.20
62573;DHT22;48626;51.678;5.806;2022-07-03T11:56:07;27.90;51.80
62573;DHT22;48626;51.678;5.806;2022-07-03T12:01:09;28.10;50.50
62573;DHT22;48626;51.678;5.806;2022-07-03T12:03:35;28.00;49.70
62573;DHT22;48626;51.678;5.806;2022-07-03T12:06:01;28.80;47.50
62573;DHT22;48626;51.678;5.806;2022-07-03T12:08:28;28.80;44.00
62573;DHT22;48626;51.678;5.806;2022-07-03T12:11:02;28.70;46.00
62573;DHT22;48626;51.678;5.806;2022-07-03T12:13:28;28.70;44.40
62573;DHT22;48626;51.678;5.806;2022-07-03T12:16:11;28.60;43.00
62573;DHT22;48626;51.678;5.806;2022-07-03T12:18:52;28.50;43.80
62573;DHT22;48626;51.678;5.806;2022-07-03T12:21:20;28.70;43.10
62573;DHT22;48626;51.678;5.806;2022-07-03T12:23:54;29.30;45.30
62573;DHT22;48626;51.678;5.806;2022-07-03T12:26:33;30.20;52.00
62573;DHT22;48626;51.678;5.806;2022-07-03T12:29:16;31.50;46.60
62573;DHT22;48626;51.678;5.806;2022-07-03T12:31:44;32.30;41.80
62573;DHT22;48626;51.678;5.806;2022-07-03T12:34:11;31.50;38.60
62573;DHT22;48626;51.678;5.806;2022-07-03T12:36:37;30.60;42.40
62573;DHT22;48626;51.678;5.806;2022-07-03T12:39:03;29.90;41.90
62573;DHT22;48626;51.678;5.806;2022-07-03T12:41:29;29.30;42.10
62573;DHT22;48626;51.678;5.806;2022-07-03T12:43:58;28.90;42.10
62573;DHT22;48626;51.678;5.806;2022-07-03T12:46:42;28.60;41.40
62573;DHT22;48626;51.678;5.806;2022-07-03T12:49:09;28.90;42.70
62573;DHT22;48626;51.678;5.806;2022-07-03T12:54:08;28.70;42.40
62573;DHT22;48626;51.678;5.806;2022-07-03T12:56:34;28.50;42.90
62573;DHT22;48626;51.678;5.806;2022-07-03T12:59:00;28.50;42.70
62573;DHT22;48626;51.678;5.806;2022-07-03T13:01:45;28.20;40.60
62573;DHT22;48626;51.678;5.806;2022-07-03T13:04:12;27.80;41.80
62573;DHT22;48626;51.678;5.806;2022-07-03T13:06:44;27.50;44.30
62573;DHT22;48626;51.678;5.806;2022-07-03T13:09:13;27.60;42.40
62573;DHT22;48626;51.678;5.806;2022-07-03T13:11:40;28.50;42.60
62573;DHT22;48626;51.678;5.806;2022-07-03T13:16:47;29.40;42.00
62573;DHT22;48626;51.678;5.806;2022-07-03T13:19:15;30.40;41.00
62573;DHT22;48626;51.678;5.806;2022-07-03T13:21:41;30.30;38.30
62573;DHT22;48626;51.678;5.806;2022-07-03T13:24:09;29.50;41.10
62573;DHT22;48626;51.678;5.806;2022-07-03T13:26:35;29.20;41.20
62573;DHT22;48626;51.678;5.806;2022-07-03T13:29:01;29.10;41.20
62573;DHT22;48626;51.678;5.806;2022-07-03T13:31:28;29.20;41.40
62573;DHT22;48626;51.678;5.806;2022-07-03T13:33:55;29.40;41.40
62573;DHT22;48626;51.678;5.806;2022-07-03T13:36:20;29.70;43.20
62573;DHT22;48626;51.678;5.806;2022-07-03T13:38:46;30.00;43.40
62573;DHT22;48626;51.678;5.806;2022-07-03T13:41:12;29.60;40.20
62573;DHT22;48626;51.678;5.806;2022-07-03T13:43:37;29.10;40.20
62573;DHT22;48626;51.678;5.806;2022-07-03T13:46:03;28.60;40.30
62573;DHT22;48626;51.678;5.806;2022-07-03T13:48:29;28.40;42.20
62573;DHT22;48626;51.678;5.806;2022-07-03T13:50:54;28.40;41.40
62573;DHT22;48626;51.678;5.806;2022-07-03T13:53:20;28.50;42.60
62573;DHT22;48626;51.678;5.806;2022-07-03T13:55:46;28.40;40.00
62573;DHT22;48626;51.678;5.806;2022-07-03T13:58:12;28.10;42.70
62573;DHT22;48626;51.678;5.806;2022-07-03T14:00:38;29.00;42.40
62573;DHT22;48626;51.678;5.806;2022-07-03T14:03:04;31.20;38.80
62573;DHT22;48626;51.678;5.806;2022-07-03T14:05:30;32.70;35.00
62573;DHT22;48626;51.678;5.806;2022-07-03T14:07:56;33.30;37.20
62573;DHT22;48626;51.678;5.806;2022-07-03T14:10:22;33.90;36.80
62573;DHT22;48626;51.678;5.806;2022-07-03T14:12:50;34.20;31.70
62573;DHT22;48626;51.678;5.806;2022-07-03T14:15:16;34.50;31.00
62573;DHT22;48626;51.678;5.806;2022-07-03T14:17:43;34.60;28.60
62573;DHT22;48626;51.678;5.806;2022-07-03T14:20:10;35.00;30.40
62573;DHT22;48626;51.678;5.806;2022-07-03T14:22:36;35.20;28.80
62573;DHT22;48626;51.678;5.806;2022-07-03T14:25:02;35.30;29.00
62573;DHT22;48626;51.678;5.806;2022-07-03T14:27:28;35.70;28.30
62573;DHT22;48626;51.678;5.806;2022-07-03T14:30:12;35.90;28.00
62573;DHT22;48626;51.678;5.806;2022-07-03T14:32:57;35.10;28.70
62573;DHT22;48626;51.678;5.806;2022-07-03T14:35:22;34.50;28.40
62573;DHT22;48626;51.678;5.806;2022-07-03T14:37:48;35.00;31.40
62573;DHT22;48626;51.678;5.806;2022-07-03T14:40:14;35.40;29.50
62573;DHT22;48626;51.678;5.806;2022-07-03T14:42:40;35.30;30.60
62573;DHT22;48626;51.678;5.806;2022-07-03T14:45:07;35.50;30.50
62573;DHT22;48626;51.678;5.806;2022-07-03T14:47:33;35.60;28.60
62573;DHT22;48626;51.678;5.806;2022-07-03T14:49:59;35.60;28.40
62573;DHT22;48626;51.678;5.806;2022-07-03T14:52:26;35.50;29.40
62573;DHT22;48626;51.678;5.806;2022-07-03T14:54:53;35.20;29.10
62573;DHT22;48626;51.678;5.806;2022-07-03T14:57:29;35.30;29.60
62573;DHT22;48626;51.678;5.806;2022-07-03T15:00:13;35.50;28.70
62573;DHT22;48626;51.678;5.806;2022-07-03T15:02:53;35.40;28.80
62573;DHT22;48626;51.678;5.806;2022-07-03T15:05:24;35.10;29.10
62573;DHT22;48626;51.678;5.806;2022-07-03T15:10:38;34.40;29.50
62573;DHT22;48626;51.678;5.806;2022-07-03T15:13:05;33.20;32.40
62573;DHT22;48626;51.678;5.806;2022-07-03T15:15:32;33.30;32.40
62573;DHT22;48626;51.678;5.806;2022-07-03T15:18:00;33.90;33.70
62573;DHT22;48626;51.678;5.806;2022-07-03T15:20:31;34.00;32.20
62573;DHT22;48626;51.678;5.806;2022-07-03T15:23:00;33.50;32.90
62573;DHT22;48626;51.678;5.806;2022-07-03T15:25:29;33.50;32.30
62573;DHT22;48626;51.678;5.806;2022-07-03T15:27:55;33.50;30.50
62573;DHT22;48626;51.678;5.806;2022-07-03T15:30:22;33.40;32.10
62573;DHT22;48626;51.678;5.806;2022-07-03T15:32:49;33.00;33.10
62573;DHT22;48626;51.678;5.806;2022-07-03T15:35:16;32.40;31.60
62573;DHT22;48626;51.678;5.806;2022-07-03T15:40:24;30.90;34.40
62573;DHT22;48626;51.678;5.806;2022-07-03T15:45:32;29.80;35.30
62573;DHT22;48626;51.678;5.806;2022-07-03T15:48:17;29.40;36.40
62573;DHT22;48626;51.678;5.806;2022-07-03T15:53:19;30.10;38.20
62573;DHT22;48626;51.678;5.806;2022-07-03T15:55:48;30.20;37.40
62573;DHT22;48626;51.678;5.806;2022-07-03T15:58:14;31.10;34.20
62573;DHT22;48626;51.678;5.806;2022-07-03T16:00:40;31.60;36.70
62573;DHT22;48626;51.678;5.806;2022-07-03T16:03:28;31.80;32.10
62573;DHT22;48626;51.678;5.806;2022-07-03T16:05:56;31.80;32.40
62573;DHT22;48626;51.678;5.806;2022-07-03T16:08:28;31.40;33.70
62573;DHT22;48626;51.678;5.806;2022-07-03T16:10:55;31.30;34.80
62573;DHT22;48626;51.678;5.806;2022-07-03T16:13:25;30.50;33.80
62573;DHT22;48626;51.678;5.806;2022-07-03T16:15:51;30.30;34.80
62573;DHT22;48626;51.678;5.806;2022-07-03T16:18:17;30.30;33.10
62573;DHT22;48626;51.678;5.806;2022-07-03T16:20:43;30.50;33.60
62573;DHT22;48626;51.678;5.806;2022-07-03T16:23:11;29.90;35.30
62573;DHT22;48626;51.678;5.806;2022-07-03T16:25:37;29.50;34.70
62573;DHT22;48626;51.678;5.806;2022-07-03T16:28:07;29.90;36.30
62573;DHT22;48626;51.678;5.806;2022-07-03T16:30:35;30.70;34.40
62573;DHT22;48626;51.678;5.806;2022-07-03T16:33:04;30.70;32.80
62573;DHT22;48626;51.678;5.806;2022-07-03T16:38:04;31.20;31.00
62573;DHT22;48626;51.678;5.806;2022-07-03T16:40:31;30.20;31.50
62573;DHT22;48626;51.678;5.806;2022-07-03T16:43:05;29.20;34.70
62573;DHT22;48626;51.678;5.806;2022-07-03T16:45:33;28.80;35.50
62573;DHT22;48626;51.678;5.806;2022-07-03T16:48:14;28.70;34.80
62573;DHT22;48626;51.678;5.806;2022-07-03T16:50:52;28.40;36.00
62573;DHT22;48626;51.678;5.806;2022-07-03T16:53:19;28.00;35.90
62573;DHT22;48626;51.678;5.806;2022-07-03T16:55:46;27.60;36.10
62573;DHT22;48626;51.678;5.806;2022-07-03T16:58:12;27.60;37.60
62573;DHT22;48626;51.678;5.806;2022-07-03T17:00:40;27.20;36.30
62573;DHT22;48626;51.678;5.806;2022-07-03T17:03:08;27.50;36.30
62573;DHT22;48626;51.678;5.806;2022-07-03T17:05:36;28.00;36.70
62573;DHT22;48626;51.678;5.806;2022-07-03T17:08:02;28.30;37.80
62573;DHT22;48626;51.678;5.806;2022-07-03T17:10:28;29.30;38.40
62573;DHT22;48626;51.678;5.806;2022-07-03T17:12:57;29.90;34.70
62573;DHT22;48626;51.678;5.806;2022-07-03T17:15:26;30.50;36.60
62573;DHT22;48626;51.678;5.806;2022-07-03T17:17:59;31.10;34.20